Time;durP1;ratioP1;P1;durP2;ratioP2;P2;SDS_P1;SDS_P2;PMS_P1;PMS_P2;Temp;Humidity;BMP_temperature;BMP_pressure;BME280_temperature;BME280_humidity;BME280_pressure;Samples;Min_cycle;Max_cycle;Signal;HPM_P1;HPM_P2
2023/06/28 00:01:05;;;;;;;5.05;2.25;;;18.60;99.90;;;;;;5026766;28;20049;-81
2023/06/28 00:03:32;;;;;;;4.55;1.55;;;18.50;1.00;;;;;;5048353;28;20037;-84
2023/06/28 00:05:58;;;;;;;3.35;1.83;;;18.30;1.00;;;;;;5064499;28;20043;-81
2023/06/28 00:08:24;;;;;;;3.17;1.67;;;18.30;1.00;;;;;;5076152;28;20038;-81
2023/06/28 00:10:50;;;;;;;4.32;1.73;;;18.20;1.00;;;;;;5053537;28;20036;-81
2023/06/28 00:13:20;;;;;;;6.25;1.63;;;18.10;1.00;;;;;;5052693;28;20426;-82
2023/06/28 00:15:46;;;;;;;4.03;1.50;;;18.00;1.00;;;;;;5048225;28;20029;-82
2023/06/28 00:18:12;;;;;;;4.22;1.67;;;18.00;1.00;;;;;;5050439;28;20048;-82
2023/06/28 00:20:40;;;;;;;4.22;1.48;;;18.00;1.00;;;;;;5050703;28;20376;-82
2023/06/28 00:23:09;;;;;;;2.80;1.52;;;17.90;1.00;;;;;;5034736;28;20034;-82
2023/06/28 00:25:36;;;;;;;4.82;2.05;;;17.90;1.00;;;;;;5067320;28;20048;-83
2023/06/28 00:28:03;;;;;;;3.08;1.60;;;18.00;1.00;;;;;;5036308;28;20036;-81
2023/06/28 00:30:30;;;;;;;6.05;2.05;;;17.90;1.00;;;;;;5052825;28;20041;-82
2023/06/28 00:32:58;;;;;;;6.50;2.08;;;17.90;1.00;;;;;;5036057;28;20052;-82
2023/06/28 00:35:27;;;;;;;3.78;1.50;;;17.80;1.00;;;;;;5050117;28;20111;-82
2023/06/28 00:37:53;;;;;;;3.30;1.83;;;17.80;1.00;;;;;;5064438;28;20240;-82
2023/06/28 00:40:19;;;;;;;5.25;1.60;;;17.80;1.00;;;;;;5051506;28;20147;-82
2023/06/28 00:42:45;;;;;;;4.03;1.65;;;17.90;1.00;;;;;;5049649;28;20033;-82
2023/06/28 00:45:13;;;;;;;6.65;1.67;;;17.90;1.00;;;;;;5048785;28;20047;-82
2023/06/28 00:47:41;;;;;;;5.03;1.70;;;18.00;1.00;;;;;;5050023;28;20029;-84
2023/06/28 00:50:08;;;;;;;4.85;1.63;;;17.90;1.00;;;;;;5049859;28;20041;-82
2023/06/28 00:52:35;;;;;;;3.10;1.75;;;18.00;1.00;;;;;;5048841;28;20040;-83
2023/06/28 00:55:03;;;;;;;5.00;2.15;;;18.00;1.00;;;;;;5046847;28;20025;-82
2023/06/28 00:57:30;;;;;;;4.30;1.30;;;18.00;1.00;;;;;;5049807;28;20049;-81
2023/06/28 00:59:58;;;;;;;4.20;1.58;;;18.10;1.00;;;;;;5049338;28;20033;-81
2023/06/28 01:02:25;;;;;;;3.35;1.23;;;18.10;1.00;;;;;;5051830;28;20048;-82
2023/06/28 01:04:57;;;;;;;8.02;1.58;;;18.00;1.00;;;;;;5047124;28;20356;-82
2023/06/28 01:07:27;;;;;;;3.35;1.45;;;18.00;1.00;;;;;;5052198;28;20067;-82
2023/06/28 01:09:56;;;;;;;2.10;0.98;;;17.90;1.00;;;;;;5047601;28;20036;-82
2023/06/28 01:12:24;;;;;;;3.78;1.30;;;18.00;1.00;;;;;;5050519;28;20045;-82
2023/06/28 01:14:51;;;;;;;5.07;1.50;;;18.00;99.90;;;;;;5043560;28;20044;-82
2023/06/28 01:17:17;;;;;;;4.80;1.45;;;18.00;99.90;;;;;;5050291;28;20041;-83
2023/06/28 01:19:43;;;;;;;3.90;1.17;;;18.10;1.00;;;;;;5046868;28;20495;-83
2023/06/28 01:22:12;;;;;;;4.82;1.83;;;18.10;99.90;;;;;;5050226;28;20059;-82
2023/06/28 01:24:39;;;;;;;3.65;1.60;;;18.20;99.90;;;;;;5034456;28;20048;-83
2023/06/28 01:27:09;;;;;;;2.80;1.33;;;18.20;1.00;;;;;;5057386;28;20049;-83
2023/06/28 01:29:36;;;;;;;5.20;1.67;;;18.20;1.00;;;;;;5060009;28;20037;-81
2023/06/28 01:32:05;;;;;;;5.22;1.50;;;18.10;1.00;;;;;;5038688;28;20025;-83
2023/06/28 01:34:32;;;;;;;2.65;1.50;;;18.00;1.00;;;;;;5039502;28;20033;-82
2023/06/28 01:37:01;;;;;;;3.40;1.45;;;17.90;1.00;;;;;;5061276;28;20044;-81
2023/06/28 01:39:30;;;;;;;3.00;1.45;;;17.80;1.00;;;;;;5056119;28;20045;-83
2023/06/28 01:41:59;;;;;;;4.13;1.58;;;17.70;1.00;;;;;;5039160;28;20386;-83
2023/06/28 01:44:25;;;;;;;2.92;1.30;;;17.60;1.00;;;;;;5048213;28;20041;-82
2023/06/28 01:46:53;;;;;;;4.43;1.60;;;17.50;1.00;;;;;;5048344;28;20052;-82
2023/06/28 01:49:20;;;;;;;4.18;1.73;;;17.50;1.00;;;;;;5050905;28;20051;-82
2023/06/28 01:51:46;;;;;;;4.10;2.60;;;17.50;1.00;;;;;;5064963;28;20487;-82
2023/06/28 01:54:14;;;;;;;3.80;1.33;;;17.50;1.00;;;;;;5046398;28;20068;-82
2023/06/28 01:56:41;;;;;;;5.45;1.70;;;17.50;1.00;;;;;;5048861;28;20074;-82
2023/06/28 01:59:07;;;;;;;2.88;1.42;;;17.50;1.00;;;;;;5050370;28;20076;-82
2023/06/28 02:01:33;;;;;;;5.57;1.83;;;17.40;1.00;;;;;;5045697;28;20479;-82
2023/06/28 02:03:59;;;;;;;10.57;1.50;;;17.40;1.00;;;;;;5027360;28;20052;-82
2023/06/28 02:06:25;;;;;;;4.18;1.58;;;17.40;1.00;;;;;;5033564;28;20041;-81
2023/06/28 02:08:51;;;;;;;2.67;1.50;;;17.40;1.00;;;;;;5045723;28;20060;-81
2023/06/28 02:11:17;;;;;;;3.33;1.80;;;17.40;1.00;;;;;;5018395;28;20487;-81
2023/06/28 02:13:43;;;;;;;6.82;1.95;;;17.40;1.00;;;;;;5049267;28;20044;-82
2023/06/28 02:16:10;;;;;;;2.17;1.20;;;17.40;1.00;;;;;;5045678;28;20041;-82
2023/06/28 02:18:36;;;;;;;2.70;1.45;;;17.40;1.00;;;;;;5046601;28;20033;-82
2023/06/28 02:21:05;;;;;;;9.30;2.03;;;17.40;1.00;;;;;;5058221;28;20428;-82
2023/06/28 02:23:31;;;;;;;3.92;1.23;;;17.50;1.00;;;;;;5048143;28;20345;-81
2023/06/28 02:25:57;;;;;;;4.68;1.40;;;17.50;1.00;;;;;;5047903;28;20486;-82
2023/06/28 02:28:23;;;;;;;5.93;1.77;;;17.50;1.00;;;;;;5034085;28;20043;-82
2023/06/28 02:30:49;;;;;;;3.33;1.50;;;17.50;1.00;;;;;;5044931;28;20046;-82
2023/06/28 02:33:15;;;;;;;4.93;1.70;;;17.50;1.00;;;;;;5061090;28;20060;-81
2023/06/28 02:35:43;;;;;;;4.00;1.23;;;17.50;1.00;;;;;;5043285;28;20036;-81
2023/06/28 02:38:11;;;;;;;6.30;1.52;;;17.40;1.00;;;;;;5049261;28;20051;-81
2023/06/28 02:40:38;;;;;;;4.78;1.30;;;17.40;1.00;;;;;;5065255;28;20041;-82
2023/06/28 02:43:07;;;;;;;4.43;1.48;;;17.50;1.00;;;;;;5033388;28;20029;-82
2023/06/28 02:45:34;;;;;;;4.18;1.58;;;17.40;1.00;;;;;;5032091;28;20368;-80
2023/06/28 02:48:00;;;;;;;5.90;1.55;;;17.40;1.00;;;;;;5048625;28;20037;-82
2023/06/28 02:50:27;;;;;;;4.90;1.60;;;17.40;1.00;;;;;;5031804;28;20049;-80
2023/06/28 02:53:15;;;;;;;4.65;1.40;;;17.40;1.00;;;;;;5022186;28;20048;-81
2023/06/28 02:55:41;;;;;;;5.97;2.00;;;17.50;99.90;;;;;;5063636;28;20032;-84
2023/06/28 02:58:07;;;;;;;4.25;1.33;;;17.60;99.90;;;;;;5028525;28;20049;-82
2023/06/28 03:00:37;;;;;;;2.55;1.35;;;17.70;99.90;;;;;;5046078;28;20048;-82
2023/06/28 03:03:03;;;;;;;3.70;1.50;;;17.60;99.90;;;;;;5060400;28;20041;-82
2023/06/28 03:05:31;;;;;;;4.15;1.23;;;17.70;99.90;;;;;;5030881;28;20048;-82
2023/06/28 03:07:57;;;;;;;4.97;1.35;;;17.80;99.90;;;;;;5048100;28;20067;-82
2023/06/28 03:10:23;;;;;;;3.95;1.60;;;17.70;99.90;;;;;;5050351;28;20476;-81
2023/06/28 03:12:49;;;;;;;4.63;1.65;;;17.60;1.00;;;;;;5062850;28;20380;-82
2023/06/28 03:15:17;;;;;;;3.67;1.23;;;17.50;1.00;;;;;;5028307;28;20045;-83
2023/06/28 03:17:43;;;;;;;5.13;1.58;;;17.50;1.00;;;;;;5048127;28;20044;-83
2023/06/28 03:20:12;;;;;;;5.38;1.50;;;17.40;1.00;;;;;;5046886;28;20045;-82
2023/06/28 03:22:38;;;;;;;3.67;1.25;;;17.40;1.00;;;;;;5032886;28;20037;-82
2023/06/28 03:25:05;;;;;;;2.00;0.95;;;17.40;1.00;;;;;;5029196;28;20089;-81
2023/06/28 03:27:31;;;;;;;4.25;1.45;;;17.30;1.00;;;;;;5031913;28;20048;-81
2023/06/28 03:29:57;;;;;;;3.80;1.25;;;17.20;1.00;;;;;;5060638;28;20046;-83
2023/06/28 03:32:24;;;;;;;5.30;1.80;;;17.20;1.00;;;;;;5019406;28;20037;-83
2023/06/28 03:34:51;;;;;;;5.93;1.50;;;17.20;1.00;;;;;;5046999;28;20049;-82
2023/06/28 03:37:18;;;;;;;4.03;1.90;;;17.20;1.00;;;;;;5031123;28;20044;-82
2023/06/28 03:39:44;;;;;;;8.07;1.60;;;17.20;1.00;;;;;;5014474;28;20408;-83
2023/06/28 03:42:10;;;;;;;3.03;1.40;;;17.20;1.00;;;;;;5048085;28;20038;-81
2023/06/28 03:44:37;;;;;;;5.15;1.65;;;17.20;1.00;;;;;;5031165;28;20044;-81
2023/06/28 03:47:04;;;;;;;5.15;1.83;;;17.10;1.00;;;;;;5063056;28;20037;-81
2023/06/28 03:49:30;;;;;;;4.40;2.00;;;17.10;1.00;;;;;;5045500;28;20037;-81
2023/06/28 03:51:56;;;;;;;2.88;1.35;;;17.10;1.00;;;;;;5060897;28;20044;-82
2023/06/28 03:54:23;;;;;;;4.32;1.48;;;17.10;1.00;;;;;;5025607;28;20360;-82
2023/06/28 03:56:49;;;;;;;5.13;1.40;;;17.10;1.00;;;;;;5037929;28;20036;-82
2023/06/28 03:59:15;;;;;;;3.58;1.50;;;17.10;1.00;;;;;;5010840;28;20056;-81
2023/06/28 04:01:42;;;;;;;5.47;2.03;;;17.10;1.00;;;;;;5053379;28;20038;-87
2023/06/28 04:04:08;;;;;;;6.80;1.60;;;17.20;1.00;;;;;;5051265;28;20028;-81
2023/06/28 04:06:34;;;;;;;4.43;1.52;;;17.20;1.00;;;;;;5028233;28;20044;-82
2023/06/28 04:09:00;;;;;;;3.45;1.40;;;17.20;1.00;;;;;;5062922;28;20045;-81
2023/06/28 04:11:26;;;;;;;3.65;1.65;;;17.20;1.00;;;;;;5053090;28;20047;-82
2023/06/28 04:13:52;;;;;;;5.80;1.27;;;17.30;1.00;;;;;;5047000;28;20052;-83
2023/06/28 04:16:19;;;;;;;4.43;1.50;;;17.30;1.00;;;;;;5065601;28;20064;-81
2023/06/28 04:18:45;;;;;;;5.28;1.33;;;17.40;1.00;;;;;;5046212;28;20400;-83
2023/06/28 04:21:11;;;;;;;7.72;2.03;;;17.50;1.00;;;;;;5060804;28;20037;-82
2023/06/28 04:23:38;;;;;;;4.45;1.92;;;17.50;1.00;;;;;;5043136;28;20040;-82
2023/06/28 04:26:04;;;;;;;4.93;1.33;;;17.50;1.00;;;;;;5064468;28;20143;-82
2023/06/28 04:28:30;;;;;;;9.70;1.75;;;17.60;1.00;;;;;;5052889;28;20399;-82
2023/06/28 04:30:56;;;;;;;2.65;1.30;;;17.60;99.90;;;;;;5047591;28;20029;-82
2023/06/28 04:33:22;;;;;;;8.10;2.25;;;17.60;99.90;;;;;;5064128;28;20045;-83
2023/06/28 04:35:54;;;;;;;6.05;1.92;;;17.60;99.90;;;;;;5029162;28;20063;-82
2023/06/28 04:38:20;;;;;;;4.63;2.08;;;17.60;99.90;;;;;;5048791;28;20057;-83
2023/06/28 04:40:46;;;;;;;3.95;1.40;;;17.60;99.90;;;;;;5046505;28;20104;-82
2023/06/28 04:43:13;;;;;;;2.38;1.08;;;17.70;99.90;;;;;;5051460;28;20032;-82
2023/06/28 04:45:40;;;;;;;5.15;1.50;;;17.70;99.90;;;;;;5049689;28;20037;-82
2023/06/28 04:48:07;;;;;;;3.83;1.38;;;17.70;99.90;;;;;;5054170;28;20040;-82
2023/06/28 04:50:34;;;;;;;2.20;1.50;;;17.80;99.90;;;;;;5059104;28;20040;-83
2023/06/28 04:53:03;;;;;;;6.85;2.03;;;17.70;99.90;;;;;;5054989;28;20033;-82
2023/06/28 04:55:32;;;;;;;4.93;2.80;;;17.70;99.90;;;;;;5049007;28;20052;-82
2023/06/28 04:58:02;;;;;;;4.57;1.30;;;17.70;99.90;;;;;;5050897;28;20053;-83
2023/06/28 05:00:29;;;;;;;4.10;1.83;;;17.80;99.90;;;;;;5048552;28;20029;-82
2023/06/28 05:02:56;;;;;;;4.05;1.08;;;17.70;99.90;;;;;;5041110;28;20049;-83
2023/06/28 05:05:26;;;;;;;5.00;1.65;;;17.80;99.90;;;;;;5045963;28;20053;-85
2023/06/28 05:07:53;;;;;;;7.40;1.75;;;17.80;99.90;;;;;;5047480;28;20034;-85
2023/06/28 05:10:20;;;;;;;3.78;1.58;;;17.80;99.90;;;;;;5052074;28;20036;-85
2023/06/28 05:12:50;;;;;;;4.70;1.10;;;17.80;99.90;;;;;;5066988;28;20049;-85
2023/06/28 05:15:16;;;;;;;6.88;1.23;;;17.80;99.90;;;;;;5066375;28;20033;-85
2023/06/28 05:17:43;;;;;;;3.35;1.45;;;17.90;99.90;;;;;;5066954;28;20049;-84
2023/06/28 05:20:09;;;;;;;4.38;1.00;;;17.90;99.90;;;;;;5048660;28;20057;-84
2023/06/28 05:23:01;;;;;;;15.25;1.75;;;17.90;99.90;;;;;;5035122;28;20037;-83
2023/06/28 05:25:27;;;;;;;2.85;1.10;;;17.90;99.90;;;;;;5014943;28;20041;-82
2023/06/28 05:27:53;;;;;;;5.25;1.50;;;17.90;99.90;;;;;;5033102;28;20061;-82
2023/06/28 05:30:19;;;;;;;4.28;1.30;;;18.00;99.90;;;;;;5062600;28;20044;-81
2023/06/28 05:32:46;;;;;;;3.05;1.27;;;18.00;99.90;;;;;;5025444;28;20044;-84
2023/06/28 05:35:12;;;;;;;5.20;1.08;;;17.90;99.90;;;;;;5046184;28;20048;-81
2023/06/28 05:37:40;;;;;;;9.75;2.33;;;17.90;99.90;;;;;;5046585;28;20037;-83
2023/06/28 05:40:08;;;;;;;4.85;1.40;;;17.90;99.90;;;;;;5045588;28;20037;-86
2023/06/28 05:42:35;;;;;;;6.95;1.48;;;18.00;99.90;;;;;;5047436;28;20033;-83
2023/06/28 05:45:01;;;;;;;4.22;1.13;;;18.10;99.90;;;;;;5030866;28;20044;-85
2023/06/28 05:47:27;;;;;;;3.55;1.40;;;18.10;99.90;;;;;;5029554;28;20032;-82
2023/06/28 05:49:53;;;;;;;3.90;2.15;;;18.10;99.90;;;;;;5049748;28;20531;-84
2023/06/28 05:52:19;;;;;;;6.07;1.58;;;18.10;99.90;;;;;;5064298;28;20507;-84
2023/06/28 05:54:45;;;;;;;4.35;1.35;;;18.20;99.90;;;;;;5032011;28;20028;-85
2023/06/28 05:57:12;;;;;;;5.68;1.48;;;18.30;99.90;;;;;;5034598;28;20036;-83
2023/06/28 05:59:38;;;;;;;2.75;1.10;;;18.30;99.90;;;;;;5041495;28;20052;-83
2023/06/28 06:02:04;;;;;;;6.60;1.77;;;18.30;99.90;;;;;;5033911;28;20033;-85
2023/06/28 06:04:31;;;;;;;6.53;1.48;;;18.30;99.90;;;;;;5028355;28;20051;-84
2023/06/28 06:06:58;;;;;;;6.38;1.45;;;18.30;99.90;;;;;;5045247;28;20136;-84
2023/06/28 06:09:25;;;;;;;3.40;1.35;;;18.30;99.90;;;;;;5031447;28;20029;-84
2023/06/28 06:11:52;;;;;;;7.55;2.45;;;18.30;99.90;;;;;;5044074;28;20048;-84
2023/06/28 06:14:18;;;;;;;6.40;1.55;;;18.30;99.90;;;;;;5049427;28;20036;-84
2023/06/28 06:16:44;;;;;;;7.38;1.30;;;18.40;99.90;;;;;;5051484;28;20021;-84
2023/06/28 06:19:10;;;;;;;5.40;1.80;;;18.50;99.90;;;;;;5070721;28;20087;-85
2023/06/28 06:21:36;;;;;;;2.50;1.05;;;18.40;99.90;;;;;;5033927;28;20039;-86
2023/06/28 06:24:07;;;;;;;4.53;1.27;;;18.50;99.90;;;;;;5048743;28;20029;-84
2023/06/28 06:26:35;;;;;;;3.78;1.67;;;18.50;99.90;;;;;;5035206;28;20037;-83
2023/06/28 06:29:01;;;;;;;5.70;1.38;;;18.60;99.90;;;;;;5051085;28;20044;-84
2023/06/28 06:31:28;;;;;;;5.03;1.58;;;18.50;99.90;;;;;;5033184;28;20391;-84
2023/06/28 06:34:01;;;;;;;5.65;2.00;;;18.50;99.90;;;;;;5054196;28;20044;-85
2023/06/28 06:36:27;;;;;;;6.85;1.80;;;18.50;99.90;;;;;;5036223;28;20033;-85
2023/06/28 06:38:55;;;;;;;6.68;1.48;;;18.60;99.90;;;;;;5058208;28;20040;-89
2023/06/28 06:41:21;;;;;;;8.63;2.42;;;18.70;99.90;;;;;;5066520;28;20464;-84
2023/06/28 06:43:48;;;;;;;6.65;1.55;;;18.70;99.90;;;;;;5047246;28;20045;-83
2023/06/28 06:46:16;;;;;;;6.75;1.70;;;18.80;99.90;;;;;;5049112;28;20036;-85
2023/06/28 06:48:42;;;;;;;6.55;1.60;;;18.80;99.90;;;;;;5048598;28;20053;-84
2023/06/28 06:51:08;;;;;;;4.43;1.35;;;18.90;99.90;;;;;;5032796;28;20041;-85
2023/06/28 06:53:35;;;;;;;4.30;1.55;;;18.90;99.90;;;;;;5048351;28;20029;-85
2023/06/28 06:56:01;;;;;;;4.40;1.70;;;19.00;99.90;;;;;;5047662;28;20029;-85
2023/06/28 06:58:27;;;;;;;3.10;1.20;;;19.00;99.90;;;;;;5025467;28;20045;-83
2023/06/28 07:00:53;;;;;;;3.47;1.02;;;19.00;99.90;;;;;;5029456;28;20033;-85
2023/06/28 07:03:19;;;;;;;5.43;1.42;;;19.10;99.90;;;;;;5027438;28;20037;-85
2023/06/28 07:05:46;;;;;;;6.53;1.10;;;19.20;99.90;;;;;;5029136;28;20046;-86
2023/06/28 07:08:12;;;;;;;2.63;1.05;;;19.10;99.90;;;;;;5027376;28;20026;-84
2023/06/28 07:10:38;;;;;;;2.83;1.10;;;19.20;99.90;;;;;;5015525;28;20041;-83
2023/06/28 07:13:04;;;;;;;4.85;1.55;;;19.20;99.90;;;;;;5025196;28;20388;-81
2023/06/28 07:15:30;;;;;;;4.50;1.33;;;19.30;99.90;;;;;;5011948;28;20037;-85
2023/06/28 07:17:56;;;;;;;5.05;1.10;;;19.50;99.90;;;;;;5030021;28;20395;-85
2023/06/28 07:20:23;;;;;;;5.97;1.25;;;19.50;99.90;;;;;;5028865;28;20460;-81
2023/06/28 07:22:49;;;;;;;5.50;1.42;;;19.50;99.90;;;;;;5007073;28;20046;-84
2023/06/28 07:25:15;;;;;;;5.57;1.48;;;19.50;99.90;;;;;;5028435;28;20051;-84
2023/06/28 07:27:41;;;;;;;6.40;1.25;;;19.40;99.90;;;;;;5025054;28;20033;-81
2023/06/28 07:30:08;;;;;;;7.28;1.40;;;19.50;99.90;;;;;;5007586;28;20048;-83
2023/06/28 07:32:34;;;;;;;5.35;1.20;;;19.40;99.90;;;;;;5024012;28;20512;-82
2023/06/28 07:35:00;;;;;;;10.82;1.70;;;19.50;99.90;;;;;;5019614;28;20041;-83
2023/06/28 07:37:27;;;;;;;6.07;1.50;;;19.60;99.90;;;;;;5026277;28;20033;-81
2023/06/28 07:39:53;;;;;;;8.18;1.50;;;19.60;99.90;;;;;;5027227;28;20049;-86
2023/06/28 07:42:20;;;;;;;3.47;1.50;;;19.40;99.90;;;;;;5015084;28;20038;-83
2023/06/28 07:44:46;;;;;;;13.77;2.45;;;19.50;99.90;;;;;;5008119;28;20049;-87
2023/06/28 07:47:12;;;;;;;6.88;1.38;;;19.60;99.90;;;;;;5019972;28;20031;-84
2023/06/28 07:49:38;;;;;;;3.38;1.20;;;19.70;99.90;;;;;;5011946;28;20022;-84
2023/06/28 07:52:05;;;;;;;3.30;1.90;;;19.90;99.90;;;;;;5009591;28;20056;-81
2023/06/28 07:54:31;;;;;;;8.40;1.95;;;20.10;99.90;;;;;;5026139;28;20045;-84
2023/06/28 07:56:58;;;;;;;4.63;1.15;;;20.20;99.90;;;;;;5010662;28;20042;-84
2023/06/28 07:59:24;;;;;;;5.97;1.42;;;20.40;99.90;;;;;;5042635;28;20050;-84
2023/06/28 08:01:50;;;;;;;2.55;0.85;;;20.50;99.90;;;;;;5032866;28;20037;-85
2023/06/28 08:04:16;;;;;;;3.08;0.90;;;20.50;99.90;;;;;;5037797;28;20044;-84
2023/06/28 08:06:43;;;;;;;6.68;1.48;;;20.50;99.90;;;;;;5050624;28;20021;-84
2023/06/28 08:09:10;;;;;;;6.65;1.30;;;20.60;99.90;;;;;;5051558;28;20045;-83
2023/06/28 08:11:36;;;;;;;4.40;1.55;;;20.50;99.90;;;;;;5050002;28;20014;-85
2023/06/28 08:14:02;;;;;;;4.85;2.35;;;20.40;99.90;;;;;;5056728;28;20025;-88
2023/06/28 08:16:28;;;;;;;4.53;1.10;;;20.40;99.90;;;;;;5020789;28;20044;-85
2023/06/28 08:18:54;;;;;;;5.75;1.50;;;20.50;99.90;;;;;;5066287;28;20060;-89
2023/06/28 08:21:21;;;;;;;3.47;1.20;;;20.60;99.90;;;;;;5050749;28;20048;-86
2023/06/28 08:23:47;;;;;;;4.75;1.30;;;20.70;99.90;;;;;;5065427;28;20468;-86
2023/06/28 08:26:13;;;;;;;3.60;1.02;;;20.70;99.90;;;;;;5050976;28;20040;-84
2023/06/28 08:28:40;;;;;;;4.72;1.10;;;20.80;99.90;;;;;;5054422;28;20467;-85
2023/06/28 08:31:06;;;;;;;5.70;1.42;;;20.80;99.90;;;;;;5046890;28;20041;-82
2023/06/28 08:33:32;;;;;;;8.88;1.65;;;21.00;99.90;;;;;;5035841;28;20052;-80
2023/06/28 08:35:58;;;;;;;5.75;1.20;;;21.30;99.90;;;;;;5053061;28;20036;-80
2023/06/28 08:38:25;;;;;;;4.75;1.20;;;22.00;99.90;;;;;;5050343;28;20147;-82
2023/06/28 08:40:54;;;;;;;4.35;1.20;;;22.60;99.90;;;;;;5034935;28;20045;-87
2023/06/28 08:43:22;;;;;;;4.20;1.13;;;22.50;99.90;;;;;;5047775;28;20036;-86
2023/06/28 08:45:49;;;;;;;4.93;1.38;;;21.80;99.90;;;;;;5047923;28;20269;-85
2023/06/28 08:48:16;;;;;;;4.80;1.10;;;21.90;99.90;;;;;;5035701;28;20176;-84
2023/06/28 08:50:44;;;;;;;5.95;1.20;;;22.40;99.90;;;;;;5065268;28;20033;-83
2023/06/28 08:53:19;;;;;;;4.82;1.17;;;23.10;99.90;;;;;;5029184;28;20040;-87
2023/06/28 08:55:47;;;;;;;6.00;1.58;;;23.40;99.90;;;;;;5034748;28;20052;-83
2023/06/28 08:58:14;;;;;;;2.85;1.00;;;23.10;99.90;;;;;;5042451;28;20487;-87
2023/06/28 09:00:42;;;;;;;4.60;1.73;;;23.40;99.90;;;;;;5044318;28;20033;-82
2023/06/28 09:03:10;;;;;;;5.18;1.45;;;23.30;99.90;;;;;;5018408;28;20048;-80
2023/06/28 09:05:40;;;;;;;4.55;1.40;;;23.30;99.90;;;;;;5037303;28;20041;-87
2023/06/28 09:08:08;;;;;;;4.22;1.10;;;23.00;99.90;;;;;;5041840;28;20048;-88
2023/06/28 09:10:34;;;;;;;5.88;1.60;;;22.30;99.90;;;;;;5039006;28;20032;-87
2023/06/28 09:13:01;;;;;;;3.95;1.20;;;22.90;99.90;;;;;;5041189;28;20041;-84
2023/06/28 09:15:28;;;;;;;8.27;2.08;;;23.70;99.90;;;;;;5052478;28;20036;-87
2023/06/28 09:17:54;;;;;;;5.97;1.58;;;23.90;99.70;;;;;;5053124;28;20036;-88
2023/06/28 09:20:21;;;;;;;4.05;2.40;;;23.60;99.90;;;;;;5028259;28;20385;-88
2023/06/28 09:22:58;;;;;;;7.10;1.83;;;23.20;99.90;;;;;;5062326;28;20033;-87
2023/06/28 09:25:27;;;;;;;2.78;1.27;;;23.10;99.90;;;;;;5077362;28;20057;-88
2023/06/28 09:27:57;;;;;;;2.75;1.38;;;23.70;99.90;;;;;;5070497;28;20042;-91
2023/06/28 09:30:42;;;;;;;3.58;1.75;;;23.20;95.60;;;;;;5042839;28;20040;-85
2023/06/28 09:33:08;;;;;;;5.07;1.48;;;23.30;99.90;;;;;;5052388;28;20029;-86
2023/06/28 09:35:39;;;;;;;5.70;1.67;;;24.20;98.30;;;;;;5060742;28;20041;-90
2023/06/28 09:38:08;;;;;;;4.72;1.58;;;24.70;77.20;;;;;;5051528;28;20029;-84
2023/06/28 09:40:35;;;;;;;5.25;1.63;;;25.00;74.00;;;;;;5051701;28;20044;-84
2023/06/28 09:43:02;;;;;;;8.55;2.78;;;24.60;60.80;;;;;;5045911;28;20033;-87
2023/06/28 09:45:31;;;;;;;6.32;1.88;;;24.60;67.50;;;;;;5034950;28;20037;-85
2023/06/28 09:47:59;;;;;;;4.65;1.92;;;24.90;73.90;;;;;;5031165;28;20025;-88
2023/06/28 09:50:38;;;;;;;5.25;2.35;;;24.90;61.30;;;;;;5053638;28;20021;-86
2023/06/28 09:53:13;;;;;;;7.53;1.73;;;24.80;79.60;;;;;;5063390;28;20041;-88
2023/06/28 09:55:41;;;;;;;12.35;2.42;;;25.40;52.50;;;;;;5049086;28;20044;-86
2023/06/28 09:58:16;;;;;;;5.53;1.73;;;25.30;59.90;;;;;;5049257;28;20056;-85
2023/06/28 10:00:46;;;;;;;4.68;1.88;;;25.10;59.60;;;;;;5050787;28;20123;-87
2023/06/28 10:03:14;;;;;;;7.22;2.17;;;25.20;49.20;;;;;;5048972;28;20037;-83
2023/06/28 10:05:42;;;;;;;7.95;2.20;;;24.90;60.60;;;;;;5047422;28;20021;-83
2023/06/28 10:08:10;;;;;;;5.57;2.20;;;25.00;55.70;;;;;;5049862;28;20039;-88
2023/06/28 10:10:38;;;;;;;7.80;2.53;;;24.60;64.40;;;;;;5045482;28;20048;-87
2023/06/28 10:13:12;;;;;;;7.72;2.28;;;23.90;89.90;;;;;;5044406;28;20020;-88
2023/06/28 10:15:54;;;;;;;12.18;3.13;;;23.70;85.50;;;;;;5043971;28;20060;-86
2023/06/28 10:18:22;;;;;;;7.32;3.30;;;23.70;98.20;;;;;;5045178;28;20065;-86
2023/06/28 10:20:49;;;;;;;6.80;2.47;;;24.30;84.80;;;;;;5018068;28;20052;-88
2023/06/28 10:23:17;;;;;;;7.53;2.60;;;24.60;76.10;;;;;;5048004;28;20037;-86
2023/06/28 10:25:45;;;;;;;9.98;2.75;;;24.70;73.90;;;;;;5049638;28;20048;-86
2023/06/28 10:28:13;;;;;;;9.95;3.03;;;24.70;96.80;;;;;;5064142;28;20041;-85
2023/06/28 10:30:40;;;;;;;8.07;2.92;;;24.90;78.00;;;;;;5034157;28;20049;-85
2023/06/28 10:33:08;;;;;;;7.15;2.80;;;24.90;67.50;;;;;;5054597;28;20048;-86
2023/06/28 10:35:35;;;;;;;7.78;2.60;;;24.30;73.70;;;;;;5046874;28;20080;-87
2023/06/28 10:38:01;;;;;;;8.98;2.65;;;24.30;76.40;;;;;;5048470;28;20423;-87
2023/06/28 10:40:28;;;;;;;5.82;2.85;;;23.70;92.10;;;;;;5048301;28;20037;-89
2023/06/28 10:42:54;;;;;;;6.32;3.20;;;23.10;95.90;;;;;;5049823;28;20033;-89
2023/06/28 10:45:37;;;;;;;10.20;3.38;;;23.40;95.80;;;;;;5047206;28;20065;-88
2023/06/28 10:48:04;;;;;;;10.82;2.88;;;23.90;97.90;;;;;;5031648;28;20040;-88
2023/06/28 10:50:40;;;;;;;6.70;2.33;;;24.10;90.80;;;;;;5035787;28;20048;-88
2023/06/28 10:53:17;;;;;;;7.75;3.42;;;24.00;93.10;;;;;;5050685;28;20113;-90
2023/06/28 10:56:07;;;;;;;5.72;1.95;;;24.10;91.30;;;;;;5045156;28;20555;-89
2023/06/28 10:58:44;;;;;;;6.20;2.40;;;24.40;90.60;;;;;;5047632;28;20041;-89
2023/06/28 11:01:12;;;;;;;6.60;2.10;;;24.80;77.30;;;;;;5064433;28;20050;-89
2023/06/28 11:03:43;;;;;;;5.88;1.80;;;24.90;68.10;;;;;;5028750;28;20037;-90
2023/06/28 11:06:11;;;;;;;5.63;2.30;;;25.00;80.70;;;;;;5049716;28;20041;-91
2023/06/28 11:08:43;;;;;;;6.90;2.50;;;25.60;69.00;;;;;;5061094;28;20040;-90
2023/06/28 11:11:23;;;;;;;5.10;2.15;;;25.90;60.00;;;;;;5042692;28;20041;-89
2023/06/28 11:13:49;;;;;;;5.15;2.08;;;26.40;46.60;;;;;;5052910;28;20056;-90
2023/06/28 11:16:22;;;;;;;5.85;2.08;;;25.40;50.10;;;;;;5047647;28;20044;-88
2023/06/28 11:18:50;;;;;;;7.60;3.30;;;24.60;70.80;;;;;;5060790;28;20780;-80
2023/06/28 11:21:26;;;;;;;10.07;3.25;;;24.70;73.10;;;;;;5029827;28;20117;-89
2023/06/28 11:23:55;;;;;;;6.75;2.15;;;24.40;76.60;;;;;;5050965;28;20049;-89
2023/06/28 11:26:37;;;;;;;7.93;3.35;;;24.40;96.40;;;;;;5044837;28;20037;-88
2023/06/28 11:29:17;;;;;;;11.05;2.88;;;24.70;74.20;;;;;;5063077;28;20040;-88
2023/06/28 11:32:02;;;;;;;6.53;2.30;;;24.50;77.50;;;;;;5047811;28;20049;-89
2023/06/28 11:34:33;;;;;;;6.53;2.40;;;24.30;86.70;;;;;;5030332;28;20044;-91
2023/06/28 11:37:03;;;;;;;4.75;2.00;;;24.20;90.40;;;;;;5047850;28;20040;-94
2023/06/28 11:39:29;;;;;;;5.88;1.92;;;24.20;94.00;;;;;;5027640;28;20038;-92
2023/06/28 11:41:55;;;;;;;3.72;1.83;;;24.40;95.90;;;;;;5049722;28;20044;-91
2023/06/28 11:44:22;;;;;;;5.97;2.15;;;24.30;91.90;;;;;;5047775;28;20060;-91
2023/06/28 11:46:49;;;;;;;5.07;1.90;;;24.00;96.00;;;;;;5046333;28;20468;-90
2023/06/28 11:49:16;;;;;;;7.80;2.58;;;23.90;94.90;;;;;;5048462;28;20389;-85
2023/06/28 11:51:45;;;;;;;8.95;2.78;;;23.90;93.60;;;;;;5036051;28;20063;-90
2023/06/28 11:54:12;;;;;;;5.60;3.00;;;24.10;92.60;;;;;;5018029;28;20033;-93
2023/06/28 11:56:44;;;;;;;5.55;2.03;;;24.40;89.10;;;;;;5031696;28;20041;-92
2023/06/28 11:59:18;;;;;;;6.38;1.92;;;24.60;90.40;;;;;;5031991;28;20057;-91
2023/06/28 12:01:45;;;;;;;6.10;2.33;;;24.70;90.40;;;;;;5038415;28;20048;-87
2023/06/28 12:04:21;;;;;;;5.85;1.85;;;25.10;81.20;;;;;;5035287;28;20507;-91
2023/06/28 12:06:48;;;;;;;5.80;2.25;;;24.80;84.00;;;;;;5032916;28;20041;-91
2023/06/28 12:09:27;;;;;;;5.95;1.88;;;25.20;84.90;;;;;;5034302;28;20040;-87
2023/06/28 12:11:57;;;;;;;4.60;2.05;;;25.00;74.20;;;;;;5047850;28;20033;-91
2023/06/28 12:14:23;;;;;;;;;;;24.70;80.40;;;;;;5028860;28;20264;-88
2023/06/28 12:16:52;;;;;;;4.72;2.45;;;24.50;87.70;;;;;;5015635;28;19904;-91
2023/06/28 12:19:33;;;;;;;7.75;2.47;;;24.10;93.00;;;;;;5028213;28;20045;-90
2023/06/28 12:22:04;;;;;;;3.83;1.65;;;24.00;95.20;;;;;;5044495;28;20064;-81
2023/06/28 12:24:34;;;;;;;4.30;2.15;;;24.10;95.30;;;;;;5048831;28;20029;-85
2023/06/28 12:27:05;;;;;;;4.20;1.75;;;24.20;92.70;;;;;;5027301;28;20445;-84
2023/06/28 12:29:35;;;;;;;8.20;1.98;;;24.20;93.40;;;;;;5028682;28;20045;-87
2023/06/28 12:32:23;;;;;;;6.57;1.87;;;24.20;94.70;;;;;;5063495;28;20041;-84
2023/06/28 12:34:50;;;;;;;4.45;1.75;;;24.60;98.40;;;;;;5045181;28;20280;-89
2023/06/28 12:37:17;;;;;;;4.18;1.98;;;24.40;92.60;;;;;;5032092;28;20041;-88
2023/06/28 12:39:43;;;;;;;4.70;2.22;;;24.60;90.40;;;;;;5048618;28;20115;-87
2023/06/28 12:42:20;;;;;;;8.07;2.60;;;24.70;94.20;;;;;;5049081;28;20472;-88
2023/06/28 12:44:52;;;;;;;6.78;2.03;;;24.80;91.40;;;;;;5046017;28;20033;-87
2023/06/28 12:47:30;;;;;;;5.88;1.98;;;24.80;86.30;;;;;;5032960;28;20460;-89
2023/06/28 12:49:58;;;;;;;3.15;1.55;;;24.60;92.30;;;;;;5028579;28;20042;-86
2023/06/28 12:52:26;;;;;;;4.82;1.77;;;24.90;87.90;;;;;;5033418;28;20047;-88
2023/06/28 12:54:53;;;;;;;5.93;1.85;;;25.20;88.80;;;;;;5060493;28;20037;-88